Time;durP1;ratioP1;P1;durP2;ratioP2;P2;SDS_P1;SDS_P2;PMS_P1;PMS_P2;Temp;Humidity;BMP_temperature;BMP_pressure;BME280_temperature;BME280_humidity;BME280_pressure;Samples;Min_cycle;Max_cycle;Signal;HPM_P1;HPM_P2
2023/12/16 00:01:23;;;;;;;11.68;5.35;;;9.10;99.90;;;;;;5037260;28;20116;-88
2023/12/16 00:03:48;;;;;;;14.90;5.25;;;9.10;99.90;;;;;;5053853;28;20127;-89
2023/12/16 00:06:15;;;;;;;13.18;5.55;;;9.10;99.90;;;;;;5061236;28;20028;-88
2023/12/16 00:08:40;;;;;;;12.00;5.25;;;9.10;99.90;;;;;;5062398;28;20028;-89
2023/12/16 00:11:07;;;;;;;12.15;4.78;;;9.10;99.90;;;;;;5053288;28;20534;-88
2023/12/16 00:13:34;;;;;;;7.25;4.40;;;9.10;99.90;;;;;;5095075;28;20081;-89
2023/12/16 00:16:00;;;;;;;10.02;3.78;;;9.10;99.90;;;;;;5054312;28;20017;-89
2023/12/16 00:18:26;;;;;;;10.52;3.45;;;9.00;99.90;;;;;;5058116;28;20104;-89
2023/12/16 00:20:52;;;;;;;10.15;3.58;;;9.00;99.90;;;;;;5036375;28;20036;-89
2023/12/16 00:23:18;;;;;;;11.23;4.43;;;9.00;99.90;;;;;;5052815;28;20461;-86
2023/12/16 00:25:44;;;;;;;9.95;3.60;;;9.00;99.90;;;;;;5057401;28;20017;-89
2023/12/16 00:28:10;;;;;;;10.77;3.33;;;9.00;99.90;;;;;;5054208;28;20087;-90
2023/12/16 00:30:35;;;;;;;10.60;3.42;;;9.00;99.90;;;;;;5076067;28;20031;-85
2023/12/16 00:33:01;;;;;;;9.50;3.70;;;9.00;99.90;;;;;;5041789;28;20132;-87
2023/12/16 00:35:26;;;;;;;9.88;3.25;;;9.00;99.90;;;;;;5056770;28;20025;-88
2023/12/16 00:37:52;;;;;;;8.85;2.78;;;9.00;99.90;;;;;;5043196;28;20370;-87
2023/12/16 00:40:18;;;;;;;8.48;3.03;;;9.00;99.90;;;;;;5045845;28;20033;-88
2023/12/16 00:42:44;;;;;;;7.00;2.90;;;9.00;99.90;;;;;;5055527;28;20049;-87
2023/12/16 00:45:10;;;;;;;13.38;3.40;;;9.00;99.90;;;;;;5038705;28;20025;-88
2023/12/16 00:47:37;;;;;;;6.28;2.63;;;9.00;99.90;;;;;;5038507;28;20037;-87
2023/12/16 00:50:06;;;;;;;11.45;3.22;;;9.00;99.90;;;;;;5038964;28;20032;-88
2023/12/16 00:52:34;;;;;;;11.25;3.28;;;9.00;99.90;;;;;;5055676;28;20116;-86
2023/12/16 00:55:00;;;;;;;12.68;3.28;;;9.00;99.90;;;;;;5077959;28;20025;-87
2023/12/16 00:57:25;;;;;;;8.15;3.78;;;9.00;99.90;;;;;;5075639;28;20021;-88
2023/12/16 00:59:51;;;;;;;6.82;2.70;;;9.00;99.90;;;;;;5060889;28;20028;-86
2023/12/16 01:02:17;;;;;;;9.20;2.65;;;9.00;99.90;;;;;;5073775;28;20041;-89
2023/12/16 01:04:43;;;;;;;8.70;2.95;;;9.00;99.90;;;;;;5043483;28;20050;-89
2023/12/16 01:07:09;;;;;;;9.88;3.28;;;9.00;99.90;;;;;;5041642;28;20055;-88
2023/12/16 01:09:35;;;;;;;10.10;3.08;;;9.00;99.90;;;;;;5054185;28;20021;-85
2023/12/16 01:12:06;;;;;;;10.77;3.05;;;9.00;99.90;;;;;;5037478;28;20501;-89
2023/12/16 01:14:32;;;;;;;11.68;3.50;;;9.00;99.90;;;;;;5053934;28;20056;-89
2023/12/16 01:16:58;;;;;;;8.32;2.50;;;9.00;99.90;;;;;;5035981;28;20045;-85
2023/12/16 01:19:24;;;;;;;13.38;3.17;;;9.00;99.90;;;;;;5051377;28;20532;-84
2023/12/16 01:21:49;;;;;;;8.70;3.15;;;9.00;99.90;;;;;;5052327;28;20041;-86
2023/12/16 01:24:15;;;;;;;6.20;2.35;;;9.10;99.90;;;;;;5035875;28;20465;-85
2023/12/16 01:26:41;;;;;;;9.00;3.03;;;9.10;99.90;;;;;;5052763;28;20069;-86
2023/12/16 01:29:07;;;;;;;8.95;2.90;;;9.10;99.90;;;;;;5052387;28;20163;-85
2023/12/16 01:31:36;;;;;;;8.98;2.88;;;9.10;99.90;;;;;;5035761;28;20063;-85
2023/12/16 01:34:01;;;;;;;11.88;2.90;;;9.10;99.90;;;;;;5035576;28;20036;-85
2023/12/16 01:36:27;;;;;;;7.40;2.70;;;9.10;99.90;;;;;;5052526;28;20377;-84
2023/12/16 01:38:53;;;;;;;9.40;2.78;;;9.00;99.90;;;;;;5052061;28;20025;-85
2023/12/16 01:41:18;;;;;;;7.72;2.70;;;9.00;99.90;;;;;;5035781;28;20041;-86
2023/12/16 01:43:46;;;;;;;9.85;3.08;;;9.00;99.90;;;;;;5052183;28;20032;-85
2023/12/16 01:46:13;;;;;;;9.32;2.80;;;9.00;99.90;;;;;;5052010;28;20373;-85
2023/12/16 01:48:40;;;;;;;11.95;2.83;;;9.00;99.90;;;;;;5052273;28;20027;-85
2023/12/16 01:51:06;;;;;;;7.72;3.15;;;9.00;99.90;;;;;;5052160;28;20120;-85
2023/12/16 01:53:33;;;;;;;9.48;2.75;;;9.00;99.90;;;;;;5035615;28;20124;-86
2023/12/16 01:55:59;;;;;;;6.03;2.67;;;9.00;99.90;;;;;;5052831;28;20045;-85
2023/12/16 01:58:24;;;;;;;9.43;3.25;;;8.90;99.90;;;;;;5052091;28;20158;-86
2023/12/16 02:00:53;;;;;;;13.10;3.30;;;9.00;99.90;;;;;;5053330;28;20029;-85
2023/12/16 02:03:20;;;;;;;8.43;2.80;;;8.90;99.90;;;;;;5035234;28;20424;-86
2023/12/16 02:05:46;;;;;;;8.75;3.08;;;8.90;99.90;;;;;;5053592;28;20040;-85
2023/12/16 02:08:11;;;;;;;8.23;3.15;;;8.90;99.90;;;;;;5035400;28;20025;-85
2023/12/16 02:10:37;;;;;;;8.75;2.95;;;8.90;99.90;;;;;;5052556;28;20431;-85
2023/12/16 02:13:03;;;;;;;7.85;2.90;;;8.90;99.90;;;;;;5035666;28;20449;-85
2023/12/16 02:15:29;;;;;;;7.63;3.03;;;8.90;99.90;;;;;;5035805;28;20021;-86
2023/12/16 02:17:55;;;;;;;10.52;4.00;;;8.90;99.90;;;;;;5035312;28;20104;-85
2023/12/16 02:20:21;;;;;;;6.82;3.03;;;8.90;99.90;;;;;;5052772;28;20170;-85
2023/12/16 02:22:47;;;;;;;10.07;3.55;;;8.90;99.90;;;;;;5056985;28;20041;-85
2023/12/16 02:25:14;;;;;;;12.32;3.30;;;8.90;99.90;;;;;;5059850;28;20029;-85
2023/12/16 02:27:44;;;;;;;9.38;3.95;;;8.90;99.90;;;;;;5058169;28;20013;-84
2023/12/16 02:30:10;;;;;;;11.48;3.38;;;8.90;99.90;;;;;;5080745;28;20013;-85
2023/12/16 02:32:36;;;;;;;13.00;2.90;;;8.90;99.90;;;;;;5080965;28;20037;-86
2023/12/16 02:35:01;;;;;;;11.18;3.80;;;8.90;99.90;;;;;;5062742;28;20055;-85
2023/12/16 02:37:29;;;;;;;15.40;4.05;;;8.90;99.90;;;;;;5061782;28;20074;-85
2023/12/16 02:39:54;;;;;;;9.68;3.72;;;8.80;99.90;;;;;;5056805;28;20032;-85
2023/12/16 02:42:20;;;;;;;7.50;3.28;;;8.80;99.90;;;;;;5057007;28;20033;-85
2023/12/16 02:44:46;;;;;;;10.38;3.40;;;8.80;99.90;;;;;;5055359;28;20120;-86
2023/12/16 02:47:11;;;;;;;9.77;3.38;;;8.70;99.90;;;;;;5055019;28;20204;-85
2023/12/16 02:49:37;;;;;;;8.82;3.42;;;8.70;99.90;;;;;;5054838;28;20057;-85
2023/12/16 02:52:03;;;;;;;10.18;3.67;;;8.70;99.90;;;;;;5038189;28;20033;-85
2023/12/16 02:54:28;;;;;;;11.18;3.95;;;8.60;99.90;;;;;;5038811;28;20036;-85
2023/12/16 02:56:54;;;;;;;11.07;4.82;;;8.60;99.90;;;;;;5038540;28;20029;-85
2023/12/16 02:59:20;;;;;;;11.05;4.13;;;8.60;99.90;;;;;;5038336;28;20456;-85
2023/12/16 03:01:46;;;;;;;10.63;4.07;;;8.60;99.90;;;;;;5038107;28;20033;-85
2023/12/16 03:04:12;;;;;;;11.80;4.13;;;8.60;99.90;;;;;;5054275;28;20088;-86
2023/12/16 03:06:42;;;;;;;13.10;4.40;;;8.60;99.90;;;;;;5055172;28;20079;-86
2023/12/16 03:09:08;;;;;;;8.88;3.70;;;8.60;99.90;;;;;;5038171;28;20038;-86
2023/12/16 03:11:34;;;;;;;12.35;3.90;;;8.50;99.90;;;;;;5053713;28;20033;-86
2023/12/16 03:14:00;;;;;;;11.55;3.92;;;8.50;99.90;;;;;;5036704;28;20091;-85
2023/12/16 03:16:26;;;;;;;9.73;4.88;;;8.50;99.90;;;;;;5037286;28;20088;-85
2023/12/16 03:18:51;;;;;;;8.80;3.90;;;8.40;99.90;;;;;;5037511;28;20099;-85
2023/12/16 03:21:17;;;;;;;9.98;4.53;;;8.40;99.90;;;;;;5053897;28;20035;-86
2023/12/16 03:23:43;;;;;;;13.70;3.70;;;8.40;99.90;;;;;;5054122;28;20037;-85
2023/12/16 03:26:09;;;;;;;13.35;4.05;;;8.40;99.90;;;;;;5053525;28;20051;-85
2023/12/16 03:28:34;;;;;;;10.15;4.28;;;8.40;99.90;;;;;;5053798;28;20025;-86
2023/12/16 03:31:00;;;;;;;11.13;4.47;;;8.40;99.90;;;;;;5053830;28;20095;-85
2023/12/16 03:33:26;;;;;;;11.82;4.75;;;8.30;99.90;;;;;;5053604;28;20116;-85
2023/12/16 03:35:51;;;;;;;12.98;4.68;;;8.30;99.90;;;;;;5053905;28;20495;-85
2023/12/16 03:38:17;;;;;;;10.27;4.22;;;8.30;99.90;;;;;;5037177;28;20036;-86
2023/12/16 03:40:43;;;;;;;10.57;4.53;;;8.30;99.90;;;;;;5055449;28;20029;-85
2023/12/16 03:43:08;;;;;;;10.88;4.00;;;8.30;99.90;;;;;;5053744;28;20037;-85
2023/12/16 03:45:34;;;;;;;11.35;4.30;;;8.20;99.90;;;;;;5055166;28;20035;-85
2023/12/16 03:48:00;;;;;;;13.25;4.20;;;8.20;99.90;;;;;;5037265;28;20029;-85
2023/12/16 03:50:25;;;;;;;12.73;4.38;;;8.20;99.90;;;;;;5037026;28;20033;-85
2023/12/16 03:52:51;;;;;;;9.85;3.80;;;8.20;99.90;;;;;;5037796;28;20040;-85
2023/12/16 03:55:17;;;;;;;12.93;4.78;;;8.20;99.90;;;;;;5049094;28;20013;-85
2023/12/16 03:57:42;;;;;;;13.07;4.28;;;8.20;99.90;;;;;;5078246;28;20030;-85
2023/12/16 04:00:08;;;;;;;11.73;4.10;;;8.20;99.90;;;;;;5061868;28;20024;-84
2023/12/16 04:02:34;;;;;;;10.25;4.00;;;8.20;99.90;;;;;;5060871;28;20037;-84
2023/12/16 04:05:00;;;;;;;9.40;3.55;;;8.20;99.90;;;;;;5040865;28;20045;-85
2023/12/16 04:07:25;;;;;;;10.38;4.05;;;8.20;99.90;;;;;;5037487;28;20075;-85
2023/12/16 04:09:51;;;;;;;10.73;3.90;;;8.20;99.90;;;;;;5053410;28;20036;-85
2023/12/16 04:12:17;;;;;;;10.85;4.22;;;8.20;99.90;;;;;;5036768;28;20037;-85
2023/12/16 04:14:43;;;;;;;10.90;3.72;;;8.10;99.90;;;;;;5054057;28;20075;-85
2023/12/16 04:17:08;;;;;;;12.13;4.10;;;8.20;99.90;;;;;;5053148;28;20029;-85
2023/12/16 04:19:34;;;;;;;11.35;3.63;;;8.20;99.90;;;;;;5052889;28;20106;-85
2023/12/16 04:22:00;;;;;;;10.75;3.85;;;8.10;99.90;;;;;;5036261;28;20174;-85
2023/12/16 04:24:25;;;;;;;11.55;4.07;;;8.20;99.90;;;;;;5035755;28;20037;-85
2023/12/16 04:26:51;;;;;;;9.70;3.53;;;8.10;99.90;;;;;;5036463;28;20528;-85
2023/12/16 04:29:16;;;;;;;10.07;3.60;;;8.10;99.90;;;;;;5053913;28;20139;-86
2023/12/16 04:31:42;;;;;;;12.35;4.65;;;8.10;99.90;;;;;;5052753;28;20033;-85
2023/12/16 04:34:08;;;;;;;9.23;3.63;;;8.20;99.90;;;;;;5052524;28;20021;-84
2023/12/16 04:36:34;;;;;;;9.63;3.63;;;8.20;99.90;;;;;;5052615;28;20037;-85
2023/12/16 04:39:07;;;;;;;10.02;3.50;;;8.20;99.90;;;;;;5036116;28;20033;-83
2023/12/16 04:41:33;;;;;;;9.05;4.28;;;8.20;99.90;;;;;;5052370;28;20021;-85
2023/12/16 04:43:59;;;;;;;8.80;3.78;;;8.20;99.90;;;;;;5052738;28;20051;-85
2023/12/16 04:46:25;;;;;;;8.63;3.85;;;8.20;99.90;;;;;;5053867;28;20024;-85
2023/12/16 04:48:51;;;;;;;11.30;4.40;;;8.20;99.90;;;;;;5053984;28;20029;-85
2023/12/16 04:51:17;;;;;;;8.95;4.00;;;8.30;99.90;;;;;;5052024;28;20086;-85
2023/12/16 04:53:42;;;;;;;14.60;4.32;;;8.20;99.90;;;;;;5052509;28;20112;-85
2023/12/16 04:56:08;;;;;;;11.82;3.92;;;8.30;99.90;;;;;;5052788;28;20535;-85
2023/12/16 04:58:34;;;;;;;10.35;4.28;;;8.30;99.90;;;;;;5052186;28;20538;-85
2023/12/16 05:01:00;;;;;;;11.63;4.07;;;8.30;99.90;;;;;;5035566;28;20115;-85
2023/12/16 05:03:27;;;;;;;10.45;4.07;;;8.20;99.90;;;;;;5051855;28;20061;-85
2023/12/16 05:05:52;;;;;;;9.48;3.67;;;8.20;99.90;;;;;;5035875;28;20032;-85
2023/12/16 05:08:22;;;;;;;8.82;4.22;;;8.20;99.90;;;;;;5052350;28;20392;-85
2023/12/16 05:10:48;;;;;;;10.88;4.00;;;8.20;99.90;;;;;;5036317;28;20401;-85
2023/12/16 05:13:17;;;;;;;10.13;4.10;;;8.20;99.90;;;;;;5052544;28;20041;-85
2023/12/16 05:15:42;;;;;;;10.48;4.20;;;8.20;99.90;;;;;;5053693;28;20064;-85
2023/12/16 05:18:09;;;;;;;13.43;4.65;;;8.20;99.90;;;;;;5054005;28;20056;-85
2023/12/16 05:20:35;;;;;;;13.07;4.13;;;8.20;99.90;;;;;;5053399;28;20029;-85
2023/12/16 05:23:00;;;;;;;10.38;3.88;;;8.10;99.90;;;;;;5067269;28;20021;-85
2023/12/16 05:25:28;;;;;;;10.88;3.80;;;8.10;99.90;;;;;;5077232;28;20045;-84
2023/12/16 05:27:54;;;;;;;11.40;4.35;;;8.10;99.90;;;;;;5060174;28;20017;-85
2023/12/16 05:30:20;;;;;;;10.68;3.88;;;8.10;99.90;;;;;;5075939;28;20025;-82
2023/12/16 05:32:45;;;;;;;11.70;4.53;;;8.10;99.90;;;;;;5040349;28;20090;-85
2023/12/16 05:35:11;;;;;;;14.63;4.40;;;8.10;99.90;;;;;;5035561;28;20057;-86
2023/12/16 05:37:37;;;;;;;11.40;4.00;;;8.10;99.90;;;;;;5035709;28;20033;-85
2023/12/16 05:40:03;;;;;;;10.07;4.35;;;8.10;99.90;;;;;;5051887;28;20493;-85
2023/12/16 05:42:29;;;;;;;15.32;4.55;;;8.00;99.90;;;;;;5035306;28;20460;-85
2023/12/16 05:44:55;;;;;;;9.63;4.10;;;8.00;99.90;;;;;;5051843;28;20033;-85
2023/12/16 05:47:21;;;;;;;13.50;4.20;;;8.00;99.90;;;;;;5051953;28;20473;-84
2023/12/16 05:49:46;;;;;;;14.45;4.68;;;8.00;99.90;;;;;;5051902;28;20096;-85
2023/12/16 05:52:12;;;;;;;12.13;4.22;;;8.00;99.90;;;;;;5051755;28;20518;-85
2023/12/16 05:54:38;;;;;;;11.68;4.45;;;8.00;99.90;;;;;;5052963;28;20397;-85
2023/12/16 05:57:04;;;;;;;13.32;4.07;;;8.00;99.90;;;;;;5038716;28;20083;-85
2023/12/16 05:59:30;;;;;;;13.02;4.28;;;8.00;99.90;;;;;;5039012;28;20043;-85
2023/12/16 06:01:55;;;;;;;12.10;4.32;;;8.00;99.90;;;;;;5056845;28;20104;-85
2023/12/16 06:04:22;;;;;;;12.45;4.57;;;7.90;99.90;;;;;;5055428;28;20080;-84
2023/12/16 06:06:48;;;;;;;9.68;3.83;;;7.90;99.90;;;;;;5055465;28;20029;-85
2023/12/16 06:09:14;;;;;;;15.10;4.43;;;7.90;99.90;;;;;;5038908;28;20039;-85
2023/12/16 06:11:39;;;;;;;9.52;3.83;;;7.90;99.90;;;;;;5057054;28;20111;-85
2023/12/16 06:14:05;;;;;;;12.35;4.70;;;7.90;99.90;;;;;;5055680;28;20456;-85
2023/12/16 06:16:31;;;;;;;11.05;4.35;;;7.90;99.90;;;;;;5056312;28;20025;-84
2023/12/16 06:18:57;;;;;;;17.65;4.88;;;7.90;99.90;;;;;;5055349;28;20029;-85
2023/12/16 06:21:23;;;;;;;11.35;4.45;;;7.90;99.90;;;;;;5055384;28;20029;-85
2023/12/16 06:23:49;;;;;;;12.18;4.43;;;7.90;99.90;;;;;;5054859;28;20384;-85
2023/12/16 06:26:14;;;;;;;11.63;4.00;;;7.90;99.90;;;;;;5055177;28;20143;-83
2023/12/16 06:28:40;;;;;;;9.15;3.55;;;7.90;99.90;;;;;;5038308;28;20115;-85
2023/12/16 06:31:05;;;;;;;10.98;3.92;;;7.90;99.90;;;;;;5055200;28;20056;-85
2023/12/16 06:33:31;;;;;;;12.18;3.60;;;7.90;99.90;;;;;;5054730;28;20221;-85
2023/12/16 06:35:57;;;;;;;14.00;4.07;;;7.90;99.90;;;;;;5055077;28;20476;-86
2023/12/16 06:38:22;;;;;;;11.00;3.92;;;7.90;99.90;;;;;;5038311;28;20059;-85
2023/12/16 06:40:48;;;;;;;14.15;4.15;;;7.90;99.90;;;;;;5038539;28;20025;-85
2023/12/16 06:43:14;;;;;;;9.70;3.85;;;7.90;99.90;;;;;;5038898;28;20064;-83
2023/12/16 06:45:40;;;;;;;13.77;3.85;;;7.80;99.90;;;;;;5039066;28;20028;-85
2023/12/16 06:48:06;;;;;;;10.07;3.22;;;7.80;99.90;;;;;;5040512;28;20033;-85
2023/12/16 06:50:31;;;;;;;10.30;4.88;;;7.90;99.90;;;;;;5075521;28;20041;-86
2023/12/16 06:52:57;;;;;;;11.25;4.45;;;7.90;99.90;;;;;;5079926;28;20026;-85
2023/12/16 06:55:23;;;;;;;11.05;4.05;;;7.90;99.90;;;;;;5079902;28;20017;-82
2023/12/16 06:57:48;;;;;;;9.98;3.58;;;7.90;99.90;;;;;;5075734;28;20143;-84
2023/12/16 07:00:14;;;;;;;10.73;4.07;;;7.80;99.90;;;;;;5055024;28;20132;-85
2023/12/16 07:02:43;;;;;;;14.07;4.35;;;7.90;99.90;;;;;;5054876;28;20037;-85
2023/12/16 07:05:10;;;;;;;13.73;3.92;;;7.90;99.90;;;;;;5054930;28;20045;-85
2023/12/16 07:07:36;;;;;;;13.73;4.20;;;7.90;99.90;;;;;;5053600;28;20043;-85
2023/12/16 07:10:02;;;;;;;9.68;3.95;;;7.80;99.90;;;;;;5037517;28;20025;-85
2023/12/16 07:12:28;;;;;;;14.23;5.05;;;7.80;99.90;;;;;;5037557;28;20028;-85
2023/12/16 07:14:54;;;;;;;9.65;4.15;;;7.80;99.90;;;;;;5037983;28;20116;-85
2023/12/16 07:17:19;;;;;;;13.38;4.57;;;7.90;99.90;;;;;;5037652;28;20143;-85
2023/12/16 07:19:45;;;;;;;12.35;4.00;;;7.90;99.90;;;;;;5037199;28;20029;-86
2023/12/16 07:22:16;;;;;;;12.38;3.85;;;7.90;99.90;;;;;;5055282;28;20083;-85
2023/12/16 07:24:42;;;;;;;10.63;4.03;;;7.90;99.90;;;;;;5054062;28;20112;-85
2023/12/16 07:27:08;;;;;;;15.07;4.72;;;7.90;99.90;;;;;;5054282;28;20487;-84
2023/12/16 07:29:34;;;;;;;9.30;4.00;;;7.80;99.90;;;;;;5037330;28;20116;-86
2023/12/16 07:32:00;;;;;;;13.50;3.83;;;7.90;99.90;;;;;;5053947;28;20025;-85
2023/12/16 07:34:26;;;;;;;9.43;3.67;;;7.80;99.90;;;;;;5053797;28;20021;-84
2023/12/16 07:36:52;;;;;;;11.32;4.10;;;7.80;99.90;;;;;;5037371;28;20036;-85
2023/12/16 07:39:18;;;;;;;13.25;4.38;;;7.80;99.90;;;;;;5037469;28;20021;-86
2023/12/16 07:41:44;;;;;;;12.70;4.00;;;7.80;99.90;;;;;;5053157;28;20384;-86
2023/12/16 07:44:11;;;;;;;11.98;3.70;;;7.80;99.90;;;;;;5038068;28;20047;-85
2023/12/16 07:46:39;;;;;;;14.27;4.22;;;7.80;99.90;;;;;;5055506;28;20029;-86
2023/12/16 07:49:05;;;;;;;17.60;4.35;;;7.80;99.90;;;;;;5053658;28;20021;-85
2023/12/16 07:51:30;;;;;;;12.85;3.90;;;7.80;99.90;;;;;;5036866;28;20036;-85
2023/12/16 07:53:56;;;;;;;10.10;3.58;;;7.80;99.90;;;;;;5054559;28;20033;-85
2023/12/16 07:56:24;;;;;;;11.20;3.85;;;7.80;99.90;;;;;;5054627;28;20036;-85
2023/12/16 07:58:51;;;;;;;11.75;3.50;;;7.80;99.90;;;;;;5053403;28;20049;-85
2023/12/16 08:01:18;;;;;;;12.15;4.38;;;7.80;99.90;;;;;;5053677;28;20036;-84
2023/12/16 08:03:45;;;;;;;14.85;3.70;;;7.80;99.90;;;;;;5053028;28;20060;-85
2023/12/16 08:06:10;;;;;;;11.05;4.05;;;7.80;99.90;;;;;;5053729;28;20378;-84
2023/12/16 08:08:37;;;;;;;9.82;3.65;;;7.80;99.90;;;;;;5053255;28;20060;-85
2023/12/16 08:11:04;;;;;;;13.10;4.00;;;7.80;99.90;;;;;;5054181;28;20017;-87
2023/12/16 08:13:30;;;;;;;12.43;3.92;;;7.80;99.90;;;;;;5055407;28;20121;-87
2023/12/16 08:15:56;;;;;;;10.10;3.75;;;7.80;99.90;;;;;;5061718;28;20033;-86
2023/12/16 08:18:21;;;;;;;11.35;3.90;;;7.80;99.90;;;;;;5077371;28;20100;-87
2023/12/16 08:20:47;;;;;;;10.13;3.35;;;7.80;99.90;;;;;;5078013;28;20027;-85
2023/12/16 08:23:13;;;;;;;11.55;4.18;;;7.80;99.90;;;;;;5055019;28;20545;-87
2023/12/16 08:25:39;;;;;;;11.98;3.75;;;7.80;99.90;;;;;;5037745;28;20041;-87
2023/12/16 08:28:05;;;;;;;12.95;4.15;;;7.80;99.90;;;;;;5036737;28;20024;-87
2023/12/16 08:30:31;;;;;;;13.38;3.72;;;7.80;99.90;;;;;;5053369;28;20465;-87
2023/12/16 08:32:56;;;;;;;10.60;3.45;;;7.90;99.90;;;;;;5053106;28;20064;-87
2023/12/16 08:35:22;;;;;;;14.18;4.05;;;7.90;99.90;;;;;;5036754;28;20485;-87
2023/12/16 08:37:50;;;;;;;15.52;4.13;;;7.90;99.90;;;;;;5054001;28;20025;-87
2023/12/16 08:40:16;;;;;;;13.63;3.40;;;7.90;99.90;;;;;;5053348;28;20037;-87
2023/12/16 08:42:44;;;;;;;9.90;3.28;;;7.90;99.90;;;;;;5052841;28;20052;-87
2023/12/16 08:45:10;;;;;;;13.65;3.97;;;7.90;99.90;;;;;;5053118;28;20040;-86
2023/12/16 08:47:36;;;;;;;11.25;3.83;;;8.00;99.90;;;;;;5037056;28;20025;-87
2023/12/16 08:50:03;;;;;;;13.68;4.45;;;8.00;99.90;;;;;;5053814;28;20035;-86
2023/12/16 08:52:31;;;;;;;11.05;3.97;;;8.10;99.90;;;;;;5052641;28;20055;-86
2023/12/16 08:54:57;;;;;;;13.98;3.45;;;8.10;99.90;;;;;;5053890;28;20025;-86
2023/12/16 08:57:23;;;;;;;13.43;4.00;;;8.20;99.90;;;;;;5052942;28;20033;-86
2023/12/16 08:59:49;;;;;;;15.10;4.25;;;8.20;99.90;;;;;;5036225;28;20032;-87
2023/12/16 09:02:15;;;;;;;11.80;3.72;;;8.20;99.90;;;;;;5036358;28;20025;-87
2023/12/16 09:04:40;;;;;;;9.77;3.42;;;8.30;99.90;;;;;;5052564;28;20087;-87
2023/12/16 09:07:06;;;;;;;12.60;4.43;;;8.30;99.90;;;;;;5036600;28;20029;-87
2023/12/16 09:09:32;;;;;;;15.05;4.80;;;8.30;99.90;;;;;;5036323;28;20029;-87
2023/12/16 09:11:58;;;;;;;13.32;4.05;;;8.40;99.90;;;;;;5052625;28;20075;-87
2023/12/16 09:14:27;;;;;;;12.57;3.70;;;8.50;99.90;;;;;;5036560;28;20029;-86
2023/12/16 09:16:53;;;;;;;12.35;4.20;;;8.50;99.90;;;;;;5052379;28;20060;-86
2023/12/16 09:19:18;;;;;;;15.00;3.92;;;8.60;99.90;;;;;;5052768;28;20358;-86
2023/12/16 09:21:44;;;;;;;13.27;3.88;;;8.60;99.90;;;;;;5036205;28;20358;-87
2023/12/16 09:24:10;;;;;;;9.25;3.58;;;8.60;99.90;;;;;;5053082;28;20072;-87
2023/12/16 09:26:35;;;;;;;10.07;4.13;;;8.70;99.90;;;;;;5052436;28;20025;-85
2023/12/16 09:29:04;;;;;;;11.77;4.28;;;8.70;99.90;;;;;;5052599;28;20033;-86
2023/12/16 09:31:30;;;;;;;9.40;3.80;;;8.70;99.90;;;;;;5055680;28;20049;-87
2023/12/16 09:33:55;;;;;;;9.40;3.85;;;8.80;99.90;;;;;;5040230;28;20385;-87
2023/12/16 09:36:26;;;;;;;10.18;3.83;;;8.80;99.90;;;;;;5057764;28;20028;-87
2023/12/16 09:38:53;;;;;;;13.82;4.72;;;8.80;99.90;;;;;;5041883;28;20036;-87
2023/12/16 09:41:24;;;;;;;13.98;4.22;;;8.80;99.90;;;;;;5058730;28;20022;-87
2023/12/16 09:43:55;;;;;;;12.07;4.28;;;8.90;99.90;;;;;;5067085;28;20111;-83
2023/12/16 09:46:27;;;;;;;12.30;4.82;;;8.80;99.90;;;;;;5063636;28;20013;-85
2023/12/16 09:48:53;;;;;;;18.23;6.20;;;8.90;99.90;;;;;;5079668;28;20059;-85
2023/12/16 09:51:23;;;;;;;12.68;4.85;;;8.80;99.90;;;;;;5078379;28;20051;-88
2023/12/16 09:53:50;;;;;;;14.25;5.78;;;8.80;99.90;;;;;;5043765;28;20040;-88
2023/12/16 09:56:17;;;;;;;14.95;5.22;;;8.90;99.90;;;;;;5039902;28;20047;-85
2023/12/16 09:58:45;;;;;;;17.77;5.15;;;8.90;99.90;;;;;;5039247;28;20037;-87
2023/12/16 10:01:11;;;;;;;15.23;5.88;;;8.90;99.90;;;;;;5056159;28;20025;-87
2023/12/16 10:03:41;;;;;;;11.93;5.22;;;9.00;99.90;;;;;;5056960;28;20145;-87
2023/12/16 10:06:08;;;;;;;13.85;5.40;;;9.00;99.90;;;;;;5057437;28;20061;-86
2023/12/16 10:08:40;;;;;;;16.77;6.63;;;9.00;99.90;;;;;;5055546;28;20036;-86
2023/12/16 10:11:09;;;;;;;16.50;6.72;;;9.00;99.90;;;;;;5039512;28;20078;-85
2023/12/16 10:13:59;;;;;;;16.45;6.57;;;9.10;99.90;;;;;;5056320;28;20037;-86
2023/12/16 10:16:25;;;;;;;20.02;7.00;;;9.10;99.90;;;;;;5055734;28;20032;-86
2023/12/16 10:18:53;;;;;;;17.20;6.28;;;9.00;99.90;;;;;;5038455;28;20021;-87
2023/12/16 10:21:29;;;;;;;20.35;6.50;;;9.10;99.90;;;;;;5038715;28;20048;-86
2023/12/16 10:24:02;;;;;;;14.30;5.85;;;9.00;99.90;;;;;;5038698;28;20029;-86
2023/12/16 10:26:46;;;;;;;15.45;6.03;;;9.10;99.90;;;;;;5055129;28;20032;-86
2023/12/16 10:29:18;;;;;;;16.58;6.65;;;9.10;99.90;;;;;;5055670;28;20565;-85
2023/12/16 10:31:43;;;;;;;;;;;9.20;99.90;;;;;;5040122;28;20159;-84
2023/12/16 10:34:16;;;;;;;14.00;6.00;;;9.10;99.90;;;;;;5056047;28;19940;-87
2023/12/16 10:36:41;;;;;;;12.90;6.18;;;9.20;99.90;;;;;;5055112;28;20059;-86
2023/12/16 10:39:19;;;;;;;20.55;6.97;;;9.10;99.90;;;;;;5055145;28;20104;-87
2023/12/16 10:41:47;;;;;;;19.23;7.28;;;9.20;99.90;;;;;;5055287;28;20476;-83
2023/12/16 10:44:16;;;;;;;16.92;7.53;;;9.20;99.90;;;;;;5055006;28;20056;-87
2023/12/16 10:46:56;;;;;;;14.40;7.22;;;9.20;99.90;;;;;;5055112;28;20064;-87
2023/12/16 10:49:40;;;;;;;19.38;7.80;;;9.20;99.90;;;;;;5040011;28;20132;-87
2023/12/16 10:52:24;;;;;;;15.98;7.90;;;9.30;99.90;;;;;;5054685;28;20049;-86
2023/12/16 10:55:06;;;;;;;15.50;7.95;;;9.30;99.90;;;;;;5055312;28;20025;-86
2023/12/16 10:57:39;;;;;;;18.48;8.57;;;9.30;99.90;;;;;;5055527;28;20464;-88
2023/12/16 11:00:07;;;;;;;16.83;7.20;;;9.40;99.90;;;;;;5055215;28;20124;-86
2023/12/16 11:03:02;;;;;;;16.50;7.60;;;9.40;99.90;;;;;;5055190;28;20095;-86
2023/12/16 11:05:38;;;;;;;16.27;7.32;;;9.40;99.90;;;;;;5055570;28;20046;-86
2023/12/16 11:08:07;;;;;;;17.75;7.80;;;9.50;99.90;;;;;;5040966;28;20029;-84
2023/12/16 11:10:33;;;;;;;16.30;7.95;;;9.50;99.90;;;;;;5040177;28;20063;-85
2023/12/16 11:13:03;;;;;;;18.52;8.30;;;9.50;99.90;;;;;;5066688;28;20055;-84
2023/12/16 11:15:31;;;;;;;17.10;7.50;;;9.60;99.90;;;;;;5062899;28;20017;-86
2023/12/16 11:18:00;;;;;;;15.15;6.88;;;9.60;99.90;;;;;;5078515;28;20043;-84
2023/12/16 11:20:40;;;;;;;14.82;7.95;;;9.60;99.90;;;;;;5078339;28;20017;-85
2023/12/16 11:23:06;;;;;;;20.83;8.65;;;9.70;99.90;;;;;;5061153;28;20090;-85
2023/12/16 11:25:34;;;;;;;16.00;7.70;;;9.70;99.90;;;;;;5054934;28;20029;-85
2023/12/16 11:28:04;;;;;;;19.10;7.82;;;9.70;99.90;;;;;;5038050;28;20037;-87
2023/12/16 11:30:32;;;;;;;19.38;8.52;;;9.70;99.90;;;;;;5054964;28;20379;-87
2023/12/16 11:32:59;;;;;;;17.48;7.65;;;9.70;99.90;;;;;;5054853;28;20048;-87
2023/12/16 11:35:42;;;;;;;13.93;7.60;;;9.80;99.90;;;;;;5055215;28;20036;-86
2023/12/16 11:38:08;;;;;;;16.60;7.75;;;9.80;99.90;;;;;;5055511;28;20033;-87
2023/12/16 11:40:46;;;;;;;17.15;7.50;;;9.80;99.90;;;;;;5054265;28;20033;-87
2023/12/16 11:43:35;;;;;;;21.02;9.00;;;9.80;99.90;;;;;;5056091;28;20121;-87
2023/12/16 11:46:00;;;;;;;16.30;8.32;;;9.80;99.90;;;;;;5055861;28;20063;-88
2023/12/16 11:48:26;;;;;;;18.05;7.82;;;9.80;99.90;;;;;;5037554;28;20037;-88
2023/12/16 11:50:55;;;;;;;15.00;8.38;;;9.80;99.90;;;;;;5054347;28;20090;-88
2023/12/16 11:53:21;;;;;;;17.38;8.30;;;9.80;99.90;;;;;;5037586;28;20128;-87
2023/12/16 11:55:47;;;;;;;17.70;8.18;;;9.80;99.90;;;;;;5038080;28;20084;-88
2023/12/16 11:58:13;;;;;;;15.77;7.85;;;9.80;99.90;;;;;;5053551;28;20029;-88
2023/12/16 12:00:40;;;;;;;13.10;7.70;;;9.80;99.90;;;;;;5054391;28;20029;-87
2023/12/16 12:03:06;;;;;;;16.52;8.35;;;9.80;99.90;;;;;;5053518;28;20063;-86
2023/12/16 12:05:32;;;;;;;16.73;8.05;;;9.80;99.90;;;;;;5053878;28;20025;-86
2023/12/16 12:07:57;;;;;;;17.15;7.97;;;9.80;99.90;;;;;;5036774;28;20484;-84
2023/12/16 12:10:25;;;;;;;16.20;8.70;;;9.80;99.90;;;;;;5053991;28;20033;-87
2023/12/16 12:12:54;;;;;;;14.77;7.63;;;9.80;99.90;;;;;;5054059;28;20028;-88
2023/12/16 12:15:20;;;;;;;18.63;8.40;;;9.80;99.90;;;;;;5053350;28;20029;-87
2023/12/16 12:17:46;;;;;;;18.88;9.35;;;9.80;99.90;;;;;;5053458;28;20044;-87
2023/12/16 12:20:13;;;;;;;22.02;9.65;;;9.80;99.90;;;;;;5053422;28;20111;-86
2023/12/16 12:22:40;;;;;;;22.63;9.15;;;9.80;99.90;;;;;;5053205;28;20029;-86
2023/12/16 12:25:06;;;;;;;15.27;8.52;;;9.80;99.90;;;;;;5052916;28;20033;-84
2023/12/16 12:27:32;;;;;;;17.33;9.25;;;9.80;99.90;;;;;;5036636;28;20029;-84
2023/12/16 12:30:04;;;;;;;19.73;8.68;;;9.80;99.90;;;;;;5036402;28;20025;-83
2023/12/16 12:32:32;;;;;;;18.73;9.18;;;9.80;99.90;;;;;;5053023;28;20021;-85
2023/12/16 12:35:07;;;;;;;17.45;9.73;;;9.80;99.90;;;;;;5053594;28;20049;-85
2023/12/16 12:37:36;;;;;;;17.92;9.43;;;9.70;99.90;;;;;;5053883;28;20033;-85
2023/12/16 12:40:23;;;;;;;17.88;9.65;;;9.70;99.90;;;;;;5054564;28;20060;-87
2023/12/16 12:42:55;;;;;;;17.30;9.57;;;9.70;99.90;;;;;;5071058;28;20021;-87
2023/12/16 12:45:30;;;;;;;;;;;9.70;99.90;;;;;;5077403;28;20041;-86
2023/12/16 12:48:10;;;;;;;18.08;9.55;;;9.70;99.90;;;;;;5076211;28;19931;-86
2023/12/16 12:50:36;;;;;;;19.85;9.82;;;9.70;99.90;;;;;;5074107;28;20092;-86